Snoqualmie River: Middle Fork station

back to: Snoqualmie river
Middle Fork station Summary - (NOAA Hydrograph: TANW1)
Latest reading:
Wed06/19 04:15 pm 2.49 ft 612 cfs (-20/hr)
Past 24hr max:
Tue06/18 04:15 pm 2.63 ft 674 cfs
Forecasted crests: (published Wed 06/19/19 07:58 am)
Thu06/20 05:00 am 3.56 ft 1187 cfs
Wed06/26 05:00 am 1.77 ft 354 cfs
Wed06/26 11:00 pm 2.19 ft 493 cfs
Thu06/27 11:00 pm 2.07 ft 449 cfs
Fri06/28 05:00 pm 1.85 ft 378 cfs

Middle Fork station Details

Latest Readings

Last 100 Readings:
Wed06/19 04:15 pm 2.49 ft 612 cfs
Wed06/19 04:00 pm 2.5 ft 617 cfs
Wed06/19 03:45 pm 2.52 ft 625 cfs
Wed06/19 03:30 pm 2.52 ft 625 cfs
Wed06/19 03:15 pm 2.51 ft 621 cfs
Wed06/19 03:00 pm 2.51 ft 621 cfs
Wed06/19 02:45 pm 2.53 ft 630 cfs
Wed06/19 02:30 pm 2.55 ft 638 cfs
Wed06/19 02:15 pm 2.54 ft 634 cfs
Wed06/19 02:00 pm 2.52 ft 625 cfs
Wed06/19 01:45 pm 2.53 ft 630 cfs
Wed06/19 01:30 pm 2.56 ft 643 cfs
Wed06/19 01:15 pm 2.54 ft 634 cfs
Wed06/19 01:00 pm 2.54 ft 634 cfs
Wed06/19 12:45 pm 2.53 ft 630 cfs
Wed06/19 12:30 pm 2.55 ft 638 cfs
Wed06/19 12:15 pm 2.54 ft 634 cfs
Wed06/19 12:00 pm 2.53 ft 630 cfs
Wed06/19 11:45 am 2.56 ft 643 cfs
Wed06/19 11:30 am 2.56 ft 643 cfs
Wed06/19 11:15 am 2.56 ft 643 cfs
Wed06/19 11:00 am 2.57 ft 647 cfs
Wed06/19 10:45 am 2.55 ft 638 cfs
Wed06/19 10:30 am 2.58 ft 652 cfs
Wed06/19 10:15 am 2.58 ft 652 cfs
Wed06/19 10:00 am 2.59 ft 656 cfs
Wed06/19 09:45 am 2.58 ft 652 cfs
Wed06/19 09:30 am 2.58 ft 652 cfs
Wed06/19 09:15 am 2.58 ft 652 cfs
Wed06/19 09:00 am 2.59 ft 656 cfs
Wed06/19 08:45 am 2.59 ft 656 cfs
Wed06/19 08:30 am 2.58 ft 652 cfs
Wed06/19 08:15 am 2.59 ft 656 cfs
Wed06/19 08:00 am 2.57 ft 647 cfs
Wed06/19 07:45 am 2.59 ft 656 cfs
Wed06/19 07:30 am 2.58 ft 652 cfs
Wed06/19 07:15 am 2.59 ft 656 cfs
Wed06/19 07:00 am 2.6 ft 661 cfs
Wed06/19 06:45 am 2.59 ft 656 cfs
Wed06/19 06:30 am 2.61 ft 665 cfs
Wed06/19 06:15 am 2.6 ft 661 cfs
Wed06/19 06:00 am 2.59 ft 656 cfs
Wed06/19 05:45 am 2.59 ft 656 cfs
Wed06/19 05:30 am 2.6 ft 661 cfs
Wed06/19 05:15 am 2.61 ft 665 cfs
Wed06/19 05:00 am 2.59 ft 656 cfs
Wed06/19 04:45 am 2.61 ft 665 cfs
Wed06/19 04:30 am 2.61 ft 665 cfs
Wed06/19 04:15 am 2.62 ft 670 cfs
Wed06/19 04:00 am 2.59 ft 656 cfs
Wed06/19 03:45 am 2.58 ft 652 cfs
Wed06/19 03:30 am 2.58 ft 652 cfs
Wed06/19 03:15 am 2.62 ft 670 cfs
Wed06/19 03:00 am 2.58 ft 652 cfs
Wed06/19 02:45 am 2.6 ft 661 cfs
Wed06/19 02:30 am 2.59 ft 656 cfs
Wed06/19 02:15 am 2.59 ft 656 cfs
Wed06/19 02:00 am 2.61 ft 665 cfs
Wed06/19 01:45 am 2.58 ft 652 cfs
Wed06/19 01:30 am 2.6 ft 661 cfs
Wed06/19 01:15 am 2.58 ft 652 cfs
Wed06/19 01:00 am 2.56 ft 643 cfs
Wed06/19 12:45 am 2.57 ft 647 cfs
Wed06/19 12:30 am 2.55 ft 638 cfs
Wed06/19 12:15 am 2.57 ft 647 cfs
Wed06/19 12:00 am 2.56 ft 643 cfs
Tue06/18 11:45 pm 2.56 ft 643 cfs
Tue06/18 11:30 pm 2.56 ft 643 cfs
Tue06/18 11:15 pm 2.56 ft 643 cfs
Tue06/18 11:00 pm 2.56 ft 643 cfs
Tue06/18 10:45 pm 2.57 ft 647 cfs
Tue06/18 10:30 pm 2.55 ft 638 cfs
Tue06/18 10:15 pm 2.59 ft 656 cfs
Tue06/18 10:00 pm 2.57 ft 647 cfs
Tue06/18 09:45 pm 2.57 ft 647 cfs
Tue06/18 09:30 pm 2.56 ft 643 cfs
Tue06/18 09:15 pm 2.57 ft 647 cfs
Tue06/18 09:00 pm 2.6 ft 661 cfs
Tue06/18 08:45 pm 2.57 ft 647 cfs
Tue06/18 08:30 pm 2.56 ft 643 cfs
Tue06/18 08:15 pm 2.57 ft 647 cfs
Tue06/18 08:00 pm 2.58 ft 652 cfs
Tue06/18 07:45 pm 2.58 ft 652 cfs
Tue06/18 07:30 pm 2.59 ft 656 cfs
Tue06/18 07:15 pm 2.58 ft 652 cfs
Tue06/18 07:00 pm 2.58 ft 652 cfs
Tue06/18 06:45 pm 2.58 ft 652 cfs
Tue06/18 06:30 pm 2.6 ft 661 cfs
Tue06/18 06:15 pm 2.57 ft 647 cfs
Tue06/18 06:00 pm 2.58 ft 652 cfs
Tue06/18 05:45 pm 2.58 ft 652 cfs
Tue06/18 05:30 pm 2.61 ft 665 cfs
Tue06/18 05:15 pm 2.59 ft 656 cfs
Tue06/18 05:00 pm 2.62 ft 670 cfs
Tue06/18 04:45 pm 2.61 ft 665 cfs
Tue06/18 04:30 pm 2.61 ft 665 cfs
Tue06/18 04:15 pm 2.63 ft 674 cfs
Tue06/18 04:00 pm 2.62 ft 670 cfs
Tue06/18 03:45 pm 2.63 ft 674 cfs
Tue06/18 03:30 pm 2.61 ft 665 cfs

Latest Forecasts

Currently Forecasted Readings:
Wed06/19 11:00 am 2.47 ft 605 cfs
Wed06/19 05:00 pm 2.44 ft 591 cfs
Wed06/19 11:00 pm 3.15 ft 940 cfs
Thu06/20 05:00 am 3.56 ft 1187 cfs
Thu06/20 11:00 am 3.47 ft 1129 cfs
Thu06/20 05:00 pm 3.22 ft 981 cfs
Thu06/20 11:00 pm 2.96 ft 835 cfs
Fri06/21 05:00 am 2.65 ft 685 cfs
Fri06/21 11:00 am 2.42 ft 583 cfs
Fri06/21 05:00 pm 2.22 ft 505 cfs
Fri06/21 11:00 pm 2.05 ft 443 cfs
Sat06/22 05:00 am 1.95 ft 407 cfs
Sat06/22 11:00 am 1.86 ft 380 cfs
Sat06/22 05:00 pm 1.8 ft 363 cfs
Sat06/22 11:00 pm 1.74 ft 344 cfs
Sun06/23 05:00 am 1.67 ft 324 cfs
Sun06/23 11:00 am 1.61 ft 308 cfs
Sun06/23 05:00 pm 1.57 ft 297 cfs
Sun06/23 11:00 pm 1.53 ft 285 cfs
Mon06/24 05:00 am 1.48 ft 273 cfs
Mon06/24 11:00 am 1.45 ft 266 cfs
Mon06/24 05:00 pm 1.41 ft 255 cfs
Mon06/24 11:00 pm 1.38 ft 248 cfs
Tue06/25 05:00 am 1.35 ft 241 cfs
Tue06/25 11:00 am 1.31 ft 232 cfs
Tue06/25 05:00 pm 1.58 ft 298 cfs
Tue06/25 11:00 pm 1.69 ft 330 cfs
Wed06/26 05:00 am 1.77 ft 354 cfs
Wed06/26 11:00 am 1.72 ft 337 cfs
Wed06/26 05:00 pm 1.91 ft 394 cfs
Wed06/26 11:00 pm 2.19 ft 493 cfs
Thu06/27 05:00 am 1.94 ft 406 cfs
Thu06/27 11:00 am 1.8 ft 360 cfs
Thu06/27 05:00 pm 1.96 ft 412 cfs
Thu06/27 11:00 pm 2.07 ft 449 cfs
Fri06/28 05:00 am 1.88 ft 388 cfs
Fri06/28 11:00 am 1.74 ft 344 cfs
Fri06/28 05:00 pm 1.85 ft 378 cfs
Fri06/28 11:00 pm 1.83 ft 371 cfs
Sat06/29 05:00 am 1.72 ft 338 cfs

Snoqualmie River flood gauge data supplied by the
National Weather Service Northwest River Forecast Center.

Sign up for Floodzilla alerts.